Time;durP1;ratioP1;P1;durP2;ratioP2;P2;SDS_P1;SDS_P2;PMS_P1;PMS_P2;Temp;Humidity;BMP_temperature;BMP_pressure;BME280_temperature;BME280_humidity;BME280_pressure;Samples;Min_cycle;Max_cycle;Signal;HPM_P1;HPM_P2
2023/12/19 00:00:47;;;;;;;27.25;9.68;;;7.30;99.90;;;;;;5005599;28;20436;-80
2023/12/19 00:03:13;;;;;;;22.85;10.32;;;7.30;99.90;;;;;;4978265;28;20042;-80
2023/12/19 00:05:40;;;;;;;21.70;9.13;;;7.30;99.90;;;;;;4992382;28;20042;-80
2023/12/19 00:08:07;;;;;;;22.38;9.68;;;7.30;99.90;;;;;;4995892;28;20038;-79
2023/12/19 00:10:34;;;;;;;18.60;9.18;;;7.30;99.90;;;;;;5014897;28;20036;-79
2023/12/19 00:13:00;;;;;;;23.48;8.75;;;7.30;99.90;;;;;;4997984;28;20054;-80
2023/12/19 00:15:26;;;;;;;23.98;8.43;;;7.30;99.90;;;;;;4995681;28;20053;-79
2023/12/19 00:17:52;;;;;;;23.38;8.70;;;7.30;99.90;;;;;;5002888;28;20054;-80
2023/12/19 00:20:17;;;;;;;22.13;8.27;;;7.30;99.90;;;;;;4980004;28;20502;-80
2023/12/19 00:22:43;;;;;;;19.67;9.50;;;7.30;99.90;;;;;;4993481;28;20052;-79
2023/12/19 00:25:09;;;;;;;23.35;9.88;;;7.30;99.90;;;;;;5055894;28;20035;-80
2023/12/19 00:27:35;;;;;;;19.02;8.65;;;7.30;99.90;;;;;;5026866;28;20041;-80
2023/12/19 00:30:00;;;;;;;18.05;7.60;;;7.30;99.90;;;;;;4995096;28;20058;-80
2023/12/19 00:32:26;;;;;;;18.05;8.02;;;7.30;99.90;;;;;;4995084;28;20050;-80
2023/12/19 00:34:52;;;;;;;19.05;7.38;;;7.30;99.90;;;;;;4991079;28;20502;-80
2023/12/19 00:37:18;;;;;;;14.13;6.65;;;7.30;99.90;;;;;;4980815;28;20042;-79
2023/12/19 00:39:44;;;;;;;19.80;7.78;;;7.30;99.90;;;;;;4978952;28;20080;-80
2023/12/19 00:42:10;;;;;;;19.58;8.38;;;7.30;99.90;;;;;;4998433;28;20071;-80
2023/12/19 00:44:37;;;;;;;22.70;7.05;;;7.30;99.90;;;;;;4993650;28;20042;-80
2023/12/19 00:47:03;;;;;;;19.70;7.75;;;7.30;99.90;;;;;;5010147;28;20038;-80
2023/12/19 00:49:29;;;;;;;19.80;7.47;;;7.30;99.90;;;;;;4994174;28;20056;-80
2023/12/19 00:51:55;;;;;;;21.38;8.23;;;7.30;99.90;;;;;;4991901;28;20048;-80
2023/12/19 00:54:22;;;;;;;20.23;7.68;;;7.30;99.90;;;;;;5005813;28;20534;-80
2023/12/19 00:56:47;;;;;;;21.40;9.00;;;7.30;99.90;;;;;;4974605;28;20037;-80
2023/12/19 00:59:13;;;;;;;18.20;7.35;;;7.30;99.90;;;;;;4995048;28;20446;-79
2023/12/19 01:01:39;;;;;;;21.10;7.63;;;7.30;99.90;;;;;;4992886;28;20065;-80
2023/12/19 01:04:05;;;;;;;14.32;6.55;;;7.30;99.90;;;;;;4998465;28;20050;-80
2023/12/19 01:06:31;;;;;;;17.13;6.97;;;7.20;99.90;;;;;;4992647;28;20497;-80
2023/12/19 01:08:57;;;;;;;15.57;7.22;;;7.20;99.90;;;;;;4978268;28;20064;-80
2023/12/19 01:11:23;;;;;;;17.55;7.57;;;7.20;99.90;;;;;;4981592;28;20050;-80
2023/12/19 01:13:50;;;;;;;18.00;7.82;;;7.20;99.90;;;;;;4992704;28;20050;-80
2023/12/19 01:16:16;;;;;;;15.52;7.18;;;7.20;99.90;;;;;;4985692;28;20048;-79
2023/12/19 01:18:42;;;;;;;13.75;6.57;;;7.20;99.90;;;;;;5021893;28;20426;-80
2023/12/19 01:21:07;;;;;;;13.50;6.82;;;7.20;99.90;;;;;;4977429;28;20041;-80
2023/12/19 01:23:33;;;;;;;15.27;6.97;;;7.20;99.90;;;;;;4973711;28;20081;-79
2023/12/19 01:25:59;;;;;;;13.25;5.97;;;7.20;99.90;;;;;;4980057;28;20053;-79
2023/12/19 01:28:25;;;;;;;13.35;5.45;;;7.10;99.90;;;;;;5056841;28;20044;-80
2023/12/19 01:30:51;;;;;;;16.30;7.32;;;7.10;99.90;;;;;;5013809;28;20057;-80
2023/12/19 01:33:17;;;;;;;13.00;6.80;;;7.10;99.90;;;;;;5008629;28;20058;-80
2023/12/19 01:35:43;;;;;;;11.48;5.68;;;7.10;99.90;;;;;;4976131;28;20111;-80
2023/12/19 01:38:09;;;;;;;17.00;6.03;;;7.10;99.90;;;;;;4961458;28;20070;-80
2023/12/19 01:40:35;;;;;;;13.82;7.25;;;7.00;99.90;;;;;;4991831;28;20054;-80
2023/12/19 01:43:01;;;;;;;13.63;6.90;;;7.10;99.90;;;;;;5033806;28;20078;-80
2023/12/19 01:45:28;;;;;;;9.13;5.50;;;7.00;99.90;;;;;;4984418;28;20063;-80
2023/12/19 01:47:54;;;;;;;12.00;5.97;;;7.00;99.90;;;;;;5042670;28;20114;-80
2023/12/19 01:50:20;;;;;;;9.55;5.25;;;7.00;99.90;;;;;;5074952;28;20041;-79
2023/12/19 01:52:50;;;;;;;13.57;5.57;;;7.10;99.90;;;;;;4990865;28;20034;-80
2023/12/19 01:55:17;;;;;;;10.25;5.35;;;7.00;99.90;;;;;;4992678;28;20060;-79
2023/12/19 01:57:44;;;;;;;11.63;6.18;;;7.00;99.90;;;;;;4992096;28;20490;-79
2023/12/19 02:00:14;;;;;;;10.20;5.32;;;7.00;99.90;;;;;;4991840;28;20058;-80
2023/12/19 02:02:40;;;;;;;11.43;6.07;;;7.00;99.90;;;;;;5009691;28;20046;-79
2023/12/19 02:05:07;;;;;;;13.43;6.03;;;7.00;99.90;;;;;;5006530;28;20049;-79
2023/12/19 02:07:33;;;;;;;12.35;6.35;;;7.00;99.90;;;;;;4993147;28;20046;-80
2023/12/19 02:10:00;;;;;;;9.88;5.00;;;7.00;99.90;;;;;;4991405;28;20052;-80
2023/12/19 02:12:26;;;;;;;14.55;7.40;;;7.00;99.90;;;;;;4997159;28;20032;-79
2023/12/19 02:14:53;;;;;;;11.55;6.32;;;7.00;99.90;;;;;;5005487;28;20032;-80
2023/12/19 02:17:21;;;;;;;9.68;5.20;;;7.00;99.90;;;;;;5011105;28;20060;-79
2023/12/19 02:19:48;;;;;;;12.98;6.40;;;7.00;99.90;;;;;;4993122;28;20081;-79
2023/12/19 02:22:13;;;;;;;10.40;5.85;;;7.00;99.90;;;;;;5005810;28;20042;-79
2023/12/19 02:24:40;;;;;;;14.20;5.70;;;7.00;99.90;;;;;;5011743;28;20050;-80
2023/12/19 02:27:07;;;;;;;11.45;5.82;;;7.00;99.90;;;;;;5020667;28;20690;-80
2023/12/19 02:29:33;;;;;;;11.00;6.07;;;7.00;99.90;;;;;;4996967;28;20054;-80
2023/12/19 02:31:59;;;;;;;13.57;6.35;;;7.00;99.90;;;;;;5010840;28;20103;-80
2023/12/19 02:34:25;;;;;;;13.05;6.10;;;7.00;99.90;;;;;;4980125;28;20050;-80
2023/12/19 02:36:51;;;;;;;24.10;6.75;;;7.00;99.90;;;;;;4982207;28;20068;-80
2023/12/19 02:39:16;;;;;;;11.38;5.68;;;7.00;99.90;;;;;;5005350;28;20042;-79
2023/12/19 02:41:42;;;;;;;10.30;5.25;;;7.00;99.90;;;;;;4980989;28;20125;-80
2023/12/19 02:44:08;;;;;;;12.27;5.97;;;7.00;99.90;;;;;;5013835;28;20063;-80
2023/12/19 02:46:34;;;;;;;10.68;4.70;;;7.00;99.90;;;;;;4993117;28;21230;-79
2023/12/19 02:49:00;;;;;;;13.02;6.28;;;7.00;99.90;;;;;;5007595;28;20048;-79
2023/12/19 02:51:26;;;;;;;10.95;4.75;;;7.10;99.90;;;;;;5010033;28;20065;-79
2023/12/19 02:53:53;;;;;;;11.63;4.68;;;7.00;99.90;;;;;;5013187;28;20046;-78
2023/12/19 02:56:19;;;;;;;16.88;6.35;;;7.10;99.90;;;;;;5008457;28;20050;-77
2023/12/19 02:58:45;;;;;;;11.55;5.18;;;7.00;99.90;;;;;;5015220;28;20374;-77
2023/12/19 03:01:10;;;;;;;15.57;5.75;;;7.10;99.90;;;;;;5007614;28;20045;-77
2023/12/19 03:03:36;;;;;;;11.02;4.40;;;7.10;99.90;;;;;;5050156;28;20064;-76
2023/12/19 03:06:02;;;;;;;14.40;5.53;;;7.10;99.90;;;;;;5037696;28;20056;-77
2023/12/19 03:08:28;;;;;;;10.48;5.47;;;7.10;99.90;;;;;;5010982;28;20042;-77
2023/12/19 03:10:53;;;;;;;13.38;5.53;;;7.10;99.90;;;;;;5005342;28;20042;-77
2023/12/19 03:13:19;;;;;;;13.32;6.40;;;7.10;99.90;;;;;;5016151;28;20099;-77
2023/12/19 03:15:46;;;;;;;9.63;5.03;;;7.10;99.90;;;;;;4999901;28;20052;-77
2023/12/19 03:18:11;;;;;;;9.65;4.65;;;7.10;99.90;;;;;;5001088;28;20042;-77
2023/12/19 03:20:37;;;;;;;11.68;5.63;;;7.10;99.90;;;;;;5014536;28;20076;-77
2023/12/19 03:23:03;;;;;;;9.15;4.03;;;7.10;99.90;;;;;;4991168;28;20118;-77
2023/12/19 03:25:28;;;;;;;7.70;3.92;;;7.10;99.90;;;;;;5005140;28;20398;-77
2023/12/19 03:27:54;;;;;;;8.23;4.53;;;7.10;99.90;;;;;;5011223;28;20038;-77
2023/12/19 03:30:20;;;;;;;9.45;4.57;;;7.10;99.90;;;;;;5005649;28;20050;-77
2023/12/19 03:32:45;;;;;;;8.35;4.63;;;7.10;99.90;;;;;;5008115;28;20070;-77
2023/12/19 03:35:12;;;;;;;7.40;4.68;;;7.20;99.90;;;;;;4984400;28;20585;-78
2023/12/19 03:37:38;;;;;;;7.95;4.22;;;7.10;99.90;;;;;;5014675;28;20037;-77
2023/12/19 03:40:05;;;;;;;8.43;4.15;;;7.10;99.90;;;;;;5030598;28;20486;-78
2023/12/19 03:42:31;;;;;;;8.65;4.45;;;7.10;99.90;;;;;;5050538;28;20045;-78
2023/12/19 03:44:57;;;;;;;10.50;4.93;;;7.10;99.90;;;;;;5018845;28;20778;-78
2023/12/19 03:47:22;;;;;;;9.00;4.65;;;7.10;99.90;;;;;;4998734;28;20042;-78
2023/12/19 03:49:48;;;;;;;8.88;4.72;;;7.10;99.90;;;;;;5018135;28;20079;-78
2023/12/19 03:52:14;;;;;;;12.63;4.93;;;7.10;99.90;;;;;;5048391;28;20046;-78
2023/12/19 03:54:39;;;;;;;7.13;3.88;;;7.10;99.90;;;;;;5048477;28;20062;-78
2023/12/19 03:57:05;;;;;;;8.10;4.20;;;7.10;99.90;;;;;;5064453;28;20044;-78
2023/12/19 03:59:31;;;;;;;8.88;4.22;;;7.10;99.90;;;;;;5045703;28;20398;-78
2023/12/19 04:01:59;;;;;;;9.15;4.75;;;7.10;99.90;;;;;;5034005;28;20028;-78
2023/12/19 04:04:25;;;;;;;10.80;4.95;;;7.10;99.90;;;;;;5059893;28;20059;-78
2023/12/19 04:06:50;;;;;;;10.93;3.83;;;7.10;99.90;;;;;;5010227;28;20042;-78
2023/12/19 04:09:16;;;;;;;12.35;4.57;;;7.10;99.90;;;;;;5008369;28;20053;-77
2023/12/19 04:11:48;;;;;;;11.48;4.80;;;7.20;99.90;;;;;;5007124;28;20441;-77
2023/12/19 04:14:14;;;;;;;9.73;5.38;;;7.10;99.90;;;;;;4993994;28;20053;-77
2023/12/19 04:16:41;;;;;;;10.52;5.35;;;7.20;99.90;;;;;;5004383;28;20061;-77
2023/12/19 04:19:07;;;;;;;12.73;3.97;;;7.10;99.90;;;;;;5004491;28;20038;-77
2023/12/19 04:21:32;;;;;;;9.98;5.05;;;7.20;99.90;;;;;;5009419;28;20335;-78
2023/12/19 04:23:58;;;;;;;8.93;4.35;;;7.10;99.90;;;;;;4988583;28;20050;-77
2023/12/19 04:26:24;;;;;;;13.55;5.35;;;7.10;99.90;;;;;;5013144;28;20074;-78
2023/12/19 04:28:50;;;;;;;10.60;5.00;;;7.20;99.90;;;;;;4987394;28;20038;-77
2023/12/19 04:31:15;;;;;;;8.73;4.78;;;7.20;99.90;;;;;;5016775;28;20050;-77
2023/12/19 04:33:41;;;;;;;13.75;5.82;;;7.20;99.90;;;;;;5006407;28;20045;-77
2023/12/19 04:36:09;;;;;;;15.60;5.22;;;7.10;99.90;;;;;;4996709;28;20077;-77
2023/12/19 04:38:36;;;;;;;7.60;3.88;;;7.20;99.90;;;;;;5008101;28;20540;-77
2023/12/19 04:41:03;;;;;;;15.05;6.50;;;7.30;99.90;;;;;;5012887;28;20049;-77
2023/12/19 04:43:28;;;;;;;11.05;5.03;;;7.20;99.90;;;;;;5005893;28;20054;-77
2023/12/19 04:45:54;;;;;;;12.68;5.70;;;7.20;99.90;;;;;;5011766;28;20045;-76
2023/12/19 04:48:20;;;;;;;9.20;4.80;;;7.20;99.90;;;;;;4988585;28;20130;-76
2023/12/19 04:50:45;;;;;;;14.00;6.18;;;7.20;99.90;;;;;;5024161;28;20049;-76
2023/12/19 04:53:11;;;;;;;15.43;5.72;;;7.20;99.90;;;;;;5017955;28;20036;-76
2023/12/19 04:55:37;;;;;;;13.23;4.72;;;7.30;99.90;;;;;;5007569;28;20084;-75
2023/12/19 04:58:03;;;;;;;9.50;4.60;;;7.30;99.90;;;;;;5003743;28;20054;-75
2023/12/19 05:00:29;;;;;;;11.80;5.20;;;7.20;99.90;;;;;;5009482;28;20125;-76
2023/12/19 05:02:55;;;;;;;12.93;4.80;;;7.30;99.90;;;;;;5003328;28;20050;-75
2023/12/19 05:05:21;;;;;;;11.63;4.75;;;7.30;99.90;;;;;;4998208;28;20042;-75
2023/12/19 05:07:46;;;;;;;8.98;4.65;;;7.30;99.90;;;;;;5006847;28;20117;-75
2023/12/19 05:10:12;;;;;;;13.38;5.50;;;7.30;99.90;;;;;;5042631;28;20047;-76
2023/12/19 05:12:38;;;;;;;8.50;4.65;;;7.30;99.90;;;;;;5002971;28;20061;-75
2023/12/19 05:15:04;;;;;;;10.25;4.43;;;7.30;99.90;;;;;;5055522;28;20122;-75
2023/12/19 05:17:31;;;;;;;7.65;3.70;;;7.30;99.90;;;;;;5021289;28;20176;-75
2023/12/19 05:19:56;;;;;;;10.70;5.03;;;7.30;99.90;;;;;;5027500;28;20845;-75
2023/12/19 05:22:22;;;;;;;8.10;4.15;;;7.30;99.90;;;;;;5014983;28;20042;-75
2023/12/19 05:24:48;;;;;;;9.07;3.90;;;7.30;99.90;;;;;;5058445;28;20405;-75
2023/12/19 05:27:14;;;;;;;8.77;3.75;;;7.30;99.90;;;;;;5008264;28;20041;-75
2023/12/19 05:29:40;;;;;;;8.40;3.92;;;7.30;99.90;;;;;;4996230;28;20080;-75
2023/12/19 05:32:06;;;;;;;6.60;3.50;;;7.30;99.90;;;;;;5011645;28;20064;-75
2023/12/19 05:34:32;;;;;;;7.60;3.83;;;7.40;99.90;;;;;;5010643;28;20584;-75
2023/12/19 05:36:58;;;;;;;13.13;5.60;;;7.40;99.90;;;;;;5022595;28;20038;-75
2023/12/19 05:39:24;;;;;;;7.97;4.10;;;7.40;99.90;;;;;;5026867;28;20051;-75
2023/12/19 05:41:51;;;;;;;7.07;4.15;;;7.30;99.90;;;;;;5065494;28;20044;-76
2023/12/19 05:44:17;;;;;;;8.63;3.72;;;7.40;99.90;;;;;;4997634;28;20050;-75
2023/12/19 05:46:45;;;;;;;8.18;4.43;;;7.40;99.90;;;;;;5004581;28;20042;-76
2023/12/19 05:49:11;;;;;;;10.05;3.92;;;7.40;99.90;;;;;;5012100;28;20068;-75
2023/12/19 05:51:40;;;;;;;9.40;4.10;;;7.40;99.90;;;;;;5031881;28;20050;-75
2023/12/19 05:54:06;;;;;;;8.00;3.60;;;7.40;99.90;;;;;;5025550;28;20068;-76
2023/12/19 05:56:33;;;;;;;5.22;3.35;;;7.40;99.90;;;;;;5081010;28;20065;-76
2023/12/19 05:58:59;;;;;;;7.10;3.22;;;7.40;99.90;;;;;;5017251;28;20057;-75
2023/12/19 06:01:24;;;;;;;9.25;3.92;;;7.40;99.90;;;;;;5014933;28;20045;-75
2023/12/19 06:03:50;;;;;;;12.45;3.92;;;7.50;99.90;;;;;;5016853;28;20045;-75
2023/12/19 06:06:16;;;;;;;8.35;3.60;;;7.40;99.90;;;;;;4981740;28;20122;-75
2023/12/19 06:08:42;;;;;;;5.72;3.33;;;7.40;99.90;;;;;;4999585;28;20042;-75
2023/12/19 06:11:09;;;;;;;5.55;2.85;;;7.40;99.90;;;;;;5004752;28;20487;-75
2023/12/19 06:13:35;;;;;;;9.30;3.08;;;7.40;99.90;;;;;;4990278;28;20042;-75
2023/12/19 06:16:00;;;;;;;7.68;3.58;;;7.50;99.90;;;;;;4993767;28;20097;-75
2023/12/19 06:18:26;;;;;;;7.65;3.63;;;7.50;99.90;;;;;;5002831;28;20095;-76
2023/12/19 06:20:52;;;;;;;5.00;3.20;;;7.50;99.90;;;;;;5021648;28;20069;-75
2023/12/19 06:23:17;;;;;;;6.93;3.45;;;7.50;99.90;;;;;;4988600;28;20042;-75
2023/12/19 06:25:43;;;;;;;5.22;2.70;;;7.50;99.90;;;;;;5004551;28;20076;-75
2023/12/19 06:28:09;;;;;;;8.57;2.65;;;7.50;99.90;;;;;;4996236;28;20065;-75
2023/12/19 06:30:35;;;;;;;5.65;2.90;;;7.50;99.90;;;;;;5009427;28;20057;-75
2023/12/19 06:33:01;;;;;;;6.85;2.70;;;7.50;99.90;;;;;;5012160;28;20856;-76
2023/12/19 06:35:30;;;;;;;5.93;3.45;;;7.50;99.90;;;;;;5019118;28;20049;-75
2023/12/19 06:37:56;;;;;;;7.03;3.08;;;7.50;99.90;;;;;;5002204;28;20125;-76
2023/12/19 06:40:23;;;;;;;6.20;2.78;;;7.60;99.90;;;;;;5039655;28;20077;-76
2023/12/19 06:42:49;;;;;;;4.07;2.42;;;7.50;99.90;;;;;;4996575;28;20064;-76
2023/12/19 06:45:14;;;;;;;6.25;2.67;;;7.50;99.90;;;;;;5008956;28;20046;-76
2023/12/19 06:47:40;;;;;;;5.40;2.97;;;7.50;99.90;;;;;;5008063;28;20054;-76
2023/12/19 06:50:06;;;;;;;6.65;3.15;;;7.50;99.90;;;;;;5004625;28;20034;-76
2023/12/19 06:52:32;;;;;;;6.70;3.58;;;7.50;99.90;;;;;;5002848;28;20163;-76
2023/12/19 06:54:58;;;;;;;4.93;2.53;;;7.50;99.90;;;;;;4993557;28;20092;-76
2023/12/19 06:57:25;;;;;;;4.28;2.58;;;7.50;99.90;;;;;;4990333;28;20041;-77
2023/12/19 06:59:50;;;;;;;7.35;3.50;;;7.50;99.90;;;;;;5009491;28;20038;-76
2023/12/19 07:02:16;;;;;;;4.75;2.88;;;7.60;99.90;;;;;;4993402;28;20083;-76
2023/12/19 07:04:42;;;;;;;6.60;3.00;;;7.50;99.90;;;;;;4990985;28;20045;-76
2023/12/19 07:07:08;;;;;;;5.72;2.83;;;7.60;99.90;;;;;;5004693;28;20049;-76
2023/12/19 07:09:35;;;;;;;6.32;2.75;;;7.50;99.90;;;;;;4994158;28;20118;-76
2023/12/19 07:12:01;;;;;;;7.68;3.10;;;7.50;99.90;;;;;;5004222;28;20049;-76
2023/12/19 07:14:28;;;;;;;3.88;1.90;;;7.50;99.90;;;;;;5001766;28;20046;-75
2023/12/19 07:16:53;;;;;;;5.80;2.38;;;7.50;99.90;;;;;;5002505;28;20051;-74
2023/12/19 07:19:19;;;;;;;4.82;2.55;;;7.50;99.90;;;;;;5001947;28;20106;-75
2023/12/19 07:21:48;;;;;;;4.68;2.05;;;7.50;99.90;;;;;;5003658;28;20065;-75
2023/12/19 07:24:14;;;;;;;4.88;2.35;;;7.50;99.90;;;;;;5009611;28;20054;-75
2023/12/19 07:26:39;;;;;;;5.75;2.72;;;7.50;99.90;;;;;;5021529;28;20041;-75
2023/12/19 07:29:08;;;;;;;5.05;2.58;;;7.50;99.90;;;;;;5025690;28;20426;-75
2023/12/19 07:31:34;;;;;;;3.38;1.60;;;7.50;99.90;;;;;;5008093;28;20054;-75
2023/12/19 07:34:03;;;;;;;7.63;2.95;;;7.50;99.90;;;;;;5006288;28;20038;-76
2023/12/19 07:36:29;;;;;;;4.05;2.13;;;7.50;99.90;;;;;;5010294;28;20053;-76
2023/12/19 07:38:55;;;;;;;5.05;2.08;;;7.60;99.90;;;;;;5015666;28;20120;-76
2023/12/19 07:41:22;;;;;;;4.60;2.38;;;7.60;99.90;;;;;;5006924;28;20045;-76
2023/12/19 07:43:48;;;;;;;5.93;2.63;;;7.60;99.90;;;;;;5049455;28;20100;-77
2023/12/19 07:46:14;;;;;;;2.83;2.10;;;7.60;99.90;;;;;;4983718;28;20060;-77
2023/12/19 07:48:40;;;;;;;7.07;2.75;;;7.60;99.90;;;;;;5042894;28;20045;-76
2023/12/19 07:51:07;;;;;;;5.30;3.00;;;7.60;99.90;;;;;;5019909;28;20097;-76
2023/12/19 07:53:33;;;;;;;4.90;2.45;;;7.60;99.90;;;;;;4985777;28;20046;-75
2023/12/19 07:56:03;;;;;;;4.75;2.10;;;7.60;99.90;;;;;;5071837;28;20501;-75
2023/12/19 07:58:29;;;;;;;21.25;6.88;;;7.60;99.90;;;;;;5054083;28;20048;-76
2023/12/19 08:00:55;;;;;;;27.02;6.63;;;7.70;99.90;;;;;;5060210;28;20049;-75
2023/12/19 08:03:24;;;;;;;9.90;3.58;;;7.70;99.90;;;;;;5019388;28;20449;-76
2023/12/19 08:05:50;;;;;;;3.85;2.00;;;7.70;99.90;;;;;;5012065;28;20058;-75
2023/12/19 08:08:20;;;;;;;3.58;2.22;;;7.70;99.90;;;;;;4987617;28;20038;-75
2023/12/19 08:10:45;;;;;;;6.10;2.30;;;7.70;99.90;;;;;;5010127;28;20038;-76
2023/12/19 08:13:14;;;;;;;4.32;1.95;;;7.70;99.90;;;;;;5005651;28;20056;-76
2023/12/19 08:15:40;;;;;;;5.70;2.20;;;7.70;99.90;;;;;;4989550;28;20042;-76
2023/12/19 08:18:07;;;;;;;5.05;2.35;;;7.70;99.90;;;;;;5004179;28;20058;-76
2023/12/19 08:20:33;;;;;;;3.25;1.90;;;7.80;99.90;;;;;;4988586;28;20034;-76
2023/12/19 08:22:59;;;;;;;6.43;2.22;;;7.80;99.90;;;;;;5009054;28;20094;-75
2023/12/19 08:25:25;;;;;;;4.30;2.08;;;7.80;99.90;;;;;;5007508;28;20050;-76
2023/12/19 08:27:51;;;;;;;7.10;1.73;;;7.80;99.90;;;;;;5020050;28;20042;-75
2023/12/19 08:30:17;;;;;;;4.20;1.95;;;7.80;99.90;;;;;;5043527;28;20061;-76
2023/12/19 08:32:42;;;;;;;3.28;1.77;;;7.80;99.90;;;;;;5056546;28;20042;-75
2023/12/19 08:35:09;;;;;;;3.75;2.20;;;7.80;99.90;;;;;;5064638;28;20044;-76
2023/12/19 08:37:35;;;;;;;3.80;2.05;;;7.80;99.90;;;;;;5007424;28;20066;-76
2023/12/19 08:40:03;;;;;;;4.53;2.47;;;7.80;99.90;;;;;;5006183;28;20046;-76
2023/12/19 08:42:29;;;;;;;3.75;2.05;;;7.80;99.90;;;;;;5014095;28;20045;-76
2023/12/19 08:44:55;;;;;;;3.33;1.77;;;7.90;99.90;;;;;;5027037;28;20052;-76
2023/12/19 08:47:25;;;;;;;4.30;2.20;;;7.90;99.90;;;;;;5063352;28;20094;-76
2023/12/19 08:49:53;;;;;;;4.30;2.10;;;7.90;99.90;;;;;;5058109;28;20050;-76
2023/12/19 08:52:21;;;;;;;4.68;2.53;;;8.00;99.90;;;;;;5009810;28;20045;-76
2023/12/19 08:54:46;;;;;;;5.32;2.38;;;8.00;99.90;;;;;;5001411;28;20054;-76
2023/12/19 08:57:13;;;;;;;4.50;2.42;;;8.00;99.90;;;;;;5015186;28;20050;-76
2023/12/19 08:59:39;;;;;;;5.88;2.20;;;8.00;99.90;;;;;;5000862;28;20046;-77
2023/12/19 09:02:05;;;;;;;4.35;1.77;;;8.10;99.90;;;;;;5015776;28;20046;-77
2023/12/19 09:04:31;;;;;;;4.68;2.38;;;8.10;99.90;;;;;;5015795;28;20061;-77
2023/12/19 09:06:56;;;;;;;4.50;2.17;;;8.00;99.90;;;;;;5017234;28;20049;-77
2023/12/19 09:09:22;;;;;;;5.88;2.88;;;8.10;99.90;;;;;;5013159;28;20531;-77
2023/12/19 09:11:48;;;;;;;5.15;2.22;;;8.10;99.90;;;;;;5038754;28;20050;-77
2023/12/19 09:14:14;;;;;;;6.13;2.53;;;8.10;99.90;;;;;;5012047;28;20045;-77
2023/12/19 09:16:40;;;;;;;5.63;3.05;;;8.20;99.90;;;;;;4984959;28;20050;-77
2023/12/19 09:19:06;;;;;;;3.70;2.30;;;8.20;99.90;;;;;;5015534;28;20525;-77
2023/12/19 09:21:32;;;;;;;5.90;2.80;;;8.20;99.90;;;;;;5016035;28;20038;-77
2023/12/19 09:23:57;;;;;;;7.80;3.13;;;8.30;99.90;;;;;;5015961;28;20042;-77
2023/12/19 09:26:23;;;;;;;8.55;2.63;;;8.30;99.90;;;;;;5008620;28;20067;-77
2023/12/19 09:28:49;;;;;;;5.72;3.63;;;8.40;99.90;;;;;;5000602;28;20489;-76
2023/12/19 09:31:14;;;;;;;5.53;2.70;;;8.40;99.90;;;;;;4997527;28;20095;-77
2023/12/19 09:33:40;;;;;;;6.40;3.03;;;8.40;99.90;;;;;;5016891;28;20046;-77
2023/12/19 09:36:09;;;;;;;7.25;3.95;;;8.50;99.90;;;;;;4997279;28;20073;-77
2023/12/19 09:38:36;;;;;;;7.20;3.58;;;8.50;99.90;;;;;;4998083;28;20046;-77
2023/12/19 09:41:04;;;;;;;7.43;3.90;;;8.50;99.90;;;;;;5022449;28;20049;-76
2023/12/19 09:43:33;;;;;;;8.30;3.35;;;8.60;99.90;;;;;;5041348;28;20044;-77
2023/12/19 09:46:01;;;;;;;6.10;3.63;;;8.60;99.90;;;;;;5010642;28;20057;-76
2023/12/19 09:48:35;;;;;;;9.20;3.90;;;8.60;99.90;;;;;;4991527;28;20047;-79
2023/12/19 09:51:03;;;;;;;7.68;3.97;;;8.60;99.90;;;;;;5014387;28;20057;-79
2023/12/19 09:53:32;;;;;;;6.45;3.67;;;8.60;99.90;;;;;;4996565;28;20700;-78
2023/12/19 09:56:01;;;;;;;10.80;4.15;;;8.60;99.90;;;;;;5015260;28;20080;-78
2023/12/19 09:58:32;;;;;;;6.68;3.97;;;8.60;99.90;;;;;;4996658;28;20038;-78
2023/12/19 10:00:58;;;;;;;8.40;4.18;;;8.60;99.90;;;;;;5008467;28;20053;-77
2023/12/19 10:03:25;;;;;;;6.50;4.30;;;8.70;99.90;;;;;;4991680;28;20058;-77
2023/12/19 10:05:52;;;;;;;6.82;4.22;;;8.70;99.90;;;;;;5013706;28;20042;-77
2023/12/19 10:08:19;;;;;;;6.82;3.78;;;8.70;99.90;;;;;;5015050;28;20042;-77
2023/12/19 10:10:53;;;;;;;10.60;3.88;;;8.60;99.90;;;;;;5014526;28;20042;-77
2023/12/19 10:13:26;;;;;;;8.10;3.42;;;8.70;99.90;;;;;;5008884;28;20505;-77
2023/12/19 10:16:12;;;;;;;6.78;3.80;;;8.70;99.90;;;;;;4998729;28;20046;-78
2023/12/19 10:18:39;;;;;;;7.70;4.57;;;8.70;99.90;;;;;;5009132;28;20050;-77
2023/12/19 10:21:09;;;;;;;8.75;5.15;;;8.70;99.90;;;;;;4998255;28;20038;-78
2023/12/19 10:23:39;;;;;;;9.95;4.90;;;8.70;99.90;;;;;;5008902;28;20119;-77
2023/12/19 10:26:06;;;;;;;8.63;4.35;;;8.70;99.90;;;;;;4992216;28;20037;-78
2023/12/19 10:28:32;;;;;;;11.63;4.65;;;8.60;99.90;;;;;;5015182;28;20490;-78
2023/12/19 10:31:16;;;;;;;7.75;4.05;;;8.60;99.90;;;;;;5008086;28;20398;-75
2023/12/19 10:33:45;;;;;;;4.78;3.42;;;8.60;99.90;;;;;;4995110;28;20046;-77
2023/12/19 10:36:30;;;;;;;7.13;4.15;;;8.70;99.90;;;;;;5022174;28;20053;-77
2023/12/19 10:38:58;;;;;;;6.80;3.47;;;8.60;99.90;;;;;;5021986;28;20034;-77
2023/12/19 10:41:28;;;;;;;6.30;4.45;;;8.60;99.90;;;;;;5062003;28;20107;-77
2023/12/19 10:43:57;;;;;;;7.55;3.90;;;8.60;99.90;;;;;;5015137;28;20054;-77
2023/12/19 10:46:31;;;;;;;8.98;4.07;;;8.60;99.90;;;;;;5000955;28;20465;-77
2023/12/19 10:48:59;;;;;;;8.27;4.13;;;8.70;99.90;;;;;;5017643;28;20046;-77
2023/12/19 10:51:41;;;;;;;8.93;4.05;;;8.70;99.90;;;;;;5001083;28;20030;-77
2023/12/19 10:54:08;;;;;;;8.77;3.67;;;8.60;99.90;;;;;;4996868;28;20038;-77
2023/12/19 10:56:54;;;;;;;9.10;3.47;;;8.70;99.90;;;;;;4999545;28;20042;-76
2023/12/19 10:59:42;;;;;;;6.95;4.85;;;8.60;99.90;;;;;;4996814;28;20912;-77
2023/12/19 11:02:11;;;;;;;8.73;3.92;;;8.70;99.90;;;;;;5000548;28;20037;-77
2023/12/19 11:04:41;;;;;;;7.38;3.92;;;8.70;99.90;;;;;;5014505;28;20122;-77
2023/12/19 11:07:12;;;;;;;7.35;4.32;;;8.70;99.90;;;;;;4998959;28;20489;-78
2023/12/19 11:09:40;;;;;;;8.82;4.55;;;8.70;99.90;;;;;;4994194;28;20030;-77
2023/12/19 11:12:06;;;;;;;12.27;4.20;;;8.70;99.90;;;;;;5017492;28;20046;-77
2023/12/19 11:14:32;;;;;;;8.55;3.90;;;8.70;99.90;;;;;;5015730;28;20054;-77
2023/12/19 11:17:04;;;;;;;7.13;3.60;;;8.60;99.90;;;;;;4985525;28;20076;-77
2023/12/19 11:19:39;;;;;;;8.40;3.97;;;8.60;99.90;;;;;;5020860;28;20056;-78
2023/12/19 11:22:13;;;;;;;6.22;3.70;;;8.70;99.90;;;;;;5011872;28;20402;-79
2023/12/19 11:24:55;;;;;;;6.97;3.83;;;8.70;99.90;;;;;;5019112;28;20053;-79
2023/12/19 11:27:32;;;;;;;6.63;3.35;;;8.70;99.90;;;;;;5000442;28;20041;-79
2023/12/19 11:29:58;;;;;;;8.45;3.78;;;8.70;99.90;;;;;;5017858;28;20139;-79
2023/12/19 11:32:27;;;;;;;5.82;3.83;;;8.70;99.90;;;;;;5002187;28;20038;-79
2023/12/19 11:34:53;;;;;;;6.38;3.58;;;8.70;99.90;;;;;;5016047;28;20045;-79
2023/12/19 11:37:22;;;;;;;6.57;3.75;;;8.70;99.90;;;;;;5017516;28;20308;-79
2023/12/19 11:39:48;;;;;;;6.43;4.00;;;8.70;99.90;;;;;;5002356;28;20042;-79
2023/12/19 11:42:39;;;;;;;8.35;3.92;;;8.70;99.90;;;;;;4998742;28;20125;-79
2023/12/19 11:45:17;;;;;;;6.28;3.67;;;8.70;99.90;;;;;;5000470;28;20037;-79
2023/12/19 11:47:43;;;;;;;6.38;3.60;;;8.70;99.90;;;;;;5016497;28;20050;-79
2023/12/19 11:50:10;;;;;;;6.35;3.75;;;8.70;99.90;;;;;;5001757;28;20462;-79
2023/12/19 11:52:36;;;;;;;5.50;3.30;;;8.70;99.90;;;;;;4999638;28;20054;-79
2023/12/19 11:55:04;;;;;;;4.13;2.95;;;8.70;99.90;;;;;;4993956;28;20046;-80
2023/12/19 11:57:30;;;;;;;7.00;3.95;;;8.70;99.90;;;;;;5016947;28;20112;-80
2023/12/19 11:59:56;;;;;;;5.20;3.35;;;8.70;99.90;;;;;;5001357;28;20034;-80
2023/12/19 12:02:36;;;;;;;4.22;2.70;;;8.80;99.90;;;;;;5001469;28;20634;-79
2023/12/19 12:05:17;;;;;;;7.40;3.75;;;8.70;99.90;;;;;;4993792;28;20050;-79
2023/12/19 12:07:49;;;;;;;5.95;3.28;;;8.80;99.90;;;;;;5010840;28;20073;-78
2023/12/19 12:10:23;;;;;;;5.05;3.15;;;8.70;99.90;;;;;;5016279;28;20057;-79
2023/12/19 12:12:50;;;;;;;4.72;3.28;;;8.80;99.90;;;;;;5019640;28;20046;-80
2023/12/19 12:15:19;;;;;;;4.88;3.33;;;8.80;99.90;;;;;;5015874;28;20118;-80
2023/12/19 12:17:48;;;;;;;5.68;2.88;;;8.80;99.90;;;;;;5029234;28;20053;-80
2023/12/19 12:20:14;;;;;;;7.07;3.22;;;8.80;99.90;;;;;;4999066;28;20078;-79
2023/12/19 12:22:40;;;;;;;5.43;2.38;;;8.80;99.90;;;;;;5015685;28;20042;-80
2023/12/19 12:25:07;;;;;;;4.20;2.75;;;8.80;99.90;;;;;;5015570;28;20042;-80
2023/12/19 12:27:33;;;;;;;6.15;3.45;;;8.80;99.90;;;;;;4983926;28;20034;-79
2023/12/19 12:30:02;;;;;;;3.88;2.60;;;8.80;99.90;;;;;;4966609;28;20094;-80
2023/12/19 12:32:28;;;;;;;4.88;3.53;;;8.80;99.90;;;;;;4991408;28;20055;-80
2023/12/19 12:34:54;;;;;;;5.82;2.80;;;8.80;99.90;;;;;;4998984;28;20045;-80
2023/12/19 12:37:20;;;;;;;5.30;2.80;;;8.80;99.90;;;;;;5017238;28;20110;-75
2023/12/19 12:39:46;;;;;;;4.38;2.65;;;8.80;99.90;;;;;;5014185;28;20056;-80
2023/12/19 12:42:13;;;;;;;5.82;3.05;;;8.80;99.90;;;;;;4998527;28;20124;-79
2023/12/19 12:44:43;;;;;;;4.57;2.65;;;8.80;99.90;;;;;;5011240;28;20166;-80
2023/12/19 12:47:08;;;;;;;9.40;3.20;;;8.80;99.90;;;;;;4991142;28;20034;-79
2023/12/19 12:49:35;;;;;;;3.80;2.58;;;8.80;99.90;;;;;;4999474;28;20095;-80
2023/12/19 12:52:01;;;;;;;3.55;2.78;;;8.90;99.90;;;;;;4975403;28;20390;-80